createdAt,value
2019-02-21T00:01:33.516Z,7.10
2019-02-21T00:03:35.176Z,7.10
2019-02-21T00:05:36.815Z,7.20
2019-02-21T00:07:38.464Z,7.20
2019-02-21T00:09:40.108Z,7.30
2019-02-21T00:11:41.757Z,7.30
2019-02-21T00:13:43.440Z,7.30
2019-02-21T00:15:45.072Z,7.40
2019-02-21T00:17:46.735Z,7.40
2019-02-21T00:19:48.394Z,7.40
2019-02-21T00:21:50.041Z,7.40
2019-02-21T00:23:51.708Z,7.40
2019-02-21T00:25:55.755Z,7.40
2019-02-21T00:27:56.904Z,7.40
2019-02-21T00:29:58.553Z,7.30
2019-02-21T00:32:00.197Z,7.30
2019-02-21T00:34:01.861Z,7.20
2019-02-21T00:36:03.512Z,7.20
2019-02-21T00:38:05.172Z,7.20
2019-02-21T00:40:06.843Z,7.10
2019-02-21T00:42:08.500Z,7.10
2019-02-21T00:44:10.432Z,7.10
2019-02-21T00:46:12.081Z,7.10
2019-02-21T00:48:13.728Z,7.10
2019-02-21T00:50:15.377Z,7.10
2019-02-21T00:52:17.016Z,7.10
2019-02-21T00:54:18.984Z,7.10
2019-02-21T00:56:20.629Z,7.20
2019-02-21T00:58:22.295Z,7.20
2019-02-21T01:00:23.953Z,7.20
2019-02-21T01:02:25.854Z,7.10
2019-02-21T01:04:28.292Z,7.10
2019-02-21T01:06:30.221Z,7.00
2019-02-21T01:08:32.144Z,7.10
2019-02-21T01:10:34.033Z,7.10
2019-02-21T01:12:35.672Z,7.10
2019-02-21T01:14:37.328Z,7.10
2019-02-21T01:16:38.985Z,7.10
2019-02-21T01:18:40.656Z,7.10
2019-02-21T01:20:42.621Z,7.00
2019-02-21T01:22:44.296Z,7.10
2019-02-21T01:24:46.234Z,7.10
2019-02-21T01:26:47.874Z,7.10
2019-02-21T01:28:49.533Z,7.10
2019-02-21T01:30:56.986Z,7.10
2019-02-21T01:32:54.751Z,7.10
2019-02-21T01:34:56.507Z,7.10
2019-02-21T01:36:58.148Z,7.00
2019-02-21T01:39:00.049Z,7.10
2019-02-21T01:41:01.696Z,7.10
2019-02-21T01:43:03.340Z,7.10
2019-02-21T01:45:05.017Z,7.10
2019-02-21T01:47:06.996Z,7.10
2019-02-21T01:49:08.646Z,7.10
2019-02-21T01:51:10.297Z,7.30
2019-02-21T01:53:12.032Z,7.30
2019-02-21T01:55:13.681Z,7.30
2019-02-21T01:57:15.617Z,7.30
2019-02-21T01:59:17.575Z,7.40
2019-02-21T02:01:19.240Z,7.60
2019-02-21T02:03:20.872Z,7.60
2019-02-21T02:05:22.533Z,7.60
2019-02-21T02:07:24.192Z,7.70
2019-02-21T02:09:25.850Z,7.70
2019-02-21T02:11:27.491Z,7.70
2019-02-21T02:13:29.453Z,7.70
2019-02-21T02:15:31.429Z,7.70
2019-02-21T02:17:33.073Z,7.70
2019-02-21T02:19:34.728Z,7.70
2019-02-21T02:21:36.611Z,7.70
2019-02-21T02:23:38.516Z,7.70
2019-02-21T02:25:40.205Z,7.70
2019-02-21T02:27:42.082Z,7.70
2019-02-21T02:29:43.784Z,7.70
2019-02-21T02:31:45.744Z,7.70
2019-02-21T02:33:47.386Z,7.70
2019-02-21T02:35:49.032Z,7.70
2019-02-21T02:37:51.028Z,7.80
2019-02-21T02:39:52.696Z,7.80
2019-02-21T02:41:54.357Z,7.80
2019-02-21T02:43:55.999Z,7.80
2019-02-21T02:45:57.649Z,7.80
2019-02-21T02:47:59.524Z,7.70
2019-02-21T02:50:01.318Z,7.80
2019-02-21T02:52:03.058Z,7.80
2019-02-21T02:54:04.718Z,7.80
2019-02-21T02:56:06.928Z,7.80
2019-02-21T02:58:08.793Z,7.80
2019-02-21T03:00:11.761Z,7.80
2019-02-21T03:02:13.453Z,7.80
2019-02-21T03:04:15.159Z,7.70
2019-02-21T03:06:16.889Z,7.80
2019-02-21T03:08:18.760Z,7.80
2019-02-21T03:10:20.441Z,7.80
2019-02-21T03:12:22.075Z,7.70
2019-02-21T03:14:23.724Z,7.80
2019-02-21T03:16:25.381Z,7.70
2019-02-21T03:18:27.020Z,7.80
2019-02-21T03:20:28.686Z,7.80
2019-02-21T03:22:30.429Z,7.80
2019-02-21T03:24:32.075Z,7.70
2019-02-21T03:26:33.732Z,7.70
2019-02-21T03:28:35.389Z,7.70
2019-02-21T03:30:37.029Z,7.60
2019-02-21T03:32:38.946Z,7.70
2019-02-21T03:34:40.580Z,7.70
2019-02-21T03:36:42.456Z,7.70
2019-02-21T03:38:44.302Z,7.60
2019-02-21T03:40:45.974Z,7.60
2019-02-21T03:42:47.632Z,7.60
2019-02-21T03:44:49.273Z,7.60
2019-02-21T03:46:50.950Z,7.70
2019-02-21T03:48:52.588Z,7.60
2019-02-21T03:50:54.277Z,7.60
2019-02-21T03:52:55.926Z,7.60
2019-02-21T03:54:57.574Z,7.60
2019-02-21T03:56:59.248Z,7.60
2019-02-21T03:59:00.889Z,7.60
2019-02-21T04:01:02.568Z,7.60
2019-02-21T04:03:04.204Z,7.60
2019-02-21T04:05:05.853Z,7.60
2019-02-21T04:07:07.506Z,7.60
2019-02-21T04:09:09.153Z,7.60
2019-02-21T04:11:10.804Z,7.60
2019-02-21T04:13:15.221Z,7.60
2019-02-21T04:15:16.002Z,7.60
2019-02-21T04:17:17.652Z,7.60
2019-02-21T04:19:19.302Z,7.60
2019-02-21T04:21:20.976Z,7.60
2019-02-21T04:23:22.625Z,7.60
2019-02-21T04:25:24.282Z,7.60
2019-02-21T04:27:26.428Z,7.60
2019-02-21T04:29:31.466Z,7.60
2019-02-21T04:31:33.191Z,7.60
2019-02-21T04:33:34.878Z,7.60
2019-02-21T04:35:36.816Z,7.50
2019-02-21T04:37:39.078Z,7.60
2019-02-21T04:39:40.736Z,7.50
2019-02-21T04:41:42.414Z,7.50
2019-02-21T04:43:44.081Z,7.50
2019-02-21T04:45:45.725Z,7.40
2019-02-21T04:47:47.376Z,7.40
2019-02-21T04:49:49.029Z,7.40
2019-02-21T04:51:50.684Z,7.40
2019-02-21T04:53:52.327Z,7.40
2019-02-21T04:55:53.980Z,7.30
2019-02-21T04:57:55.661Z,7.40
2019-02-21T04:59:57.309Z,7.40
2019-02-21T05:01:58.975Z,7.40
2019-02-21T05:04:00.609Z,7.50
2019-02-21T05:06:02.243Z,7.50
2019-02-21T05:08:03.907Z,7.50
2019-02-21T05:10:05.585Z,7.40
2019-02-21T05:12:07.499Z,7.40
2019-02-21T05:14:09.236Z,7.40
2019-02-21T05:16:10.878Z,7.40
2019-02-21T05:18:12.529Z,7.50
2019-02-21T05:20:14.456Z,7.50
2019-02-21T05:22:16.138Z,7.50
2019-02-21T05:24:17.785Z,7.50
2019-02-21T05:26:25.924Z,7.50
2019-02-21T05:28:29.310Z,7.50
2019-02-21T05:30:30.955Z,7.50
2019-02-21T05:32:50.749Z,7.50
2019-02-21T05:34:59.140Z,7.40
2019-02-21T05:37:20.500Z,7.40
2019-02-21T05:39:34.304Z,7.40
2019-02-21T05:41:58.563Z,7.40
2019-02-21T05:44:22.524Z,7.40
2019-02-21T05:46:42.262Z,7.40
2019-02-21T05:49:03.631Z,7.40
2019-02-21T05:51:11.943Z,7.40
2019-02-21T05:53:45.314Z,7.40
2019-02-21T05:55:55.712Z,7.40
2019-02-21T05:58:05.773Z,7.40
2019-02-21T06:00:45.376Z,7.30
2019-02-21T06:02:55.037Z,7.30
2019-02-21T06:05:02.821Z,7.30
2019-02-21T06:07:17.096Z,7.30
2019-02-21T06:09:41.342Z,7.30
2019-02-21T06:11:56.926Z,7.40
2019-02-21T06:14:24.168Z,7.40
2019-02-21T06:16:57.687Z,7.40
2019-02-21T06:19:13.975Z,7.40
2019-02-21T06:21:23.106Z,7.40
2019-02-21T06:23:39.391Z,7.40
2019-02-21T06:26:00.923Z,7.30
2019-02-21T06:28:06.768Z,7.40
2019-02-21T06:30:18.648Z,7.40
2019-02-21T06:32:20.612Z,7.30
2019-02-21T06:34:22.292Z,7.30
2019-02-21T06:36:26.159Z,7.30
2019-02-21T06:38:27.803Z,7.30
2019-02-21T06:40:29.450Z,7.40
2019-02-21T06:42:31.093Z,7.40
2019-02-21T06:44:32.764Z,7.40
2019-02-21T06:46:34.400Z,7.30
2019-02-21T06:48:36.109Z,7.40
2019-02-21T06:50:37.856Z,7.40
2019-02-21T06:52:40.680Z,7.40
2019-02-21T06:54:42.756Z,7.40
2019-02-21T06:56:44.397Z,7.40
2019-02-21T06:58:46.054Z,7.30
2019-02-21T07:00:47.796Z,7.30
2019-02-21T07:02:49.768Z,7.30
2019-02-21T07:04:51.429Z,7.30
2019-02-21T07:06:53.381Z,7.30
2019-02-21T07:08:55.028Z,7.30
2019-02-21T07:11:05.856Z,7.30
2019-02-21T07:13:00.244Z,7.40
2019-02-21T07:15:01.897Z,7.40
2019-02-21T07:17:03.853Z,7.40
2019-02-21T07:19:05.577Z,7.40
2019-02-21T07:21:07.224Z,7.40
2019-02-21T07:23:11.237Z,7.40
2019-02-21T07:25:25.973Z,7.40
2019-02-21T07:27:27.627Z,7.50
2019-02-21T07:29:29.289Z,7.50
2019-02-21T07:31:32.615Z,7.60
2019-02-21T07:33:34.677Z,7.60
2019-02-21T07:35:36.328Z,7.60
2019-02-21T07:37:37.985Z,7.70
2019-02-21T07:39:39.665Z,7.70
2019-02-21T07:41:41.775Z,7.80
2019-02-21T07:43:43.541Z,7.80
2019-02-21T07:45:45.276Z,7.90
2019-02-21T07:47:46.941Z,7.90
2019-02-21T07:49:48.841Z,8.00
2019-02-21T07:51:50.508Z,8.00
2019-02-21T07:53:52.252Z,8.10
2019-02-21T07:55:55.728Z,8.20
2019-02-21T07:57:57.736Z,8.20
2019-02-21T07:59:59.396Z,8.30
2019-02-21T08:02:01.049Z,8.30
2019-02-21T08:04:02.752Z,8.30
2019-02-21T08:06:04.773Z,8.20
2019-02-21T08:08:09.124Z,8.20
2019-02-21T08:10:10.308Z,8.10
2019-02-21T08:12:11.952Z,8.10
2019-02-21T08:14:16.027Z,8.10
2019-02-21T08:16:17.376Z,8.10
2019-02-21T08:18:19.052Z,8.10
2019-02-21T08:20:20.708Z,8.10
2019-02-21T08:22:22.336Z,8.10
2019-02-21T08:24:23.997Z,8.10
2019-02-21T08:26:25.661Z,8.20
2019-02-21T08:28:27.637Z,8.30
2019-02-21T08:30:29.644Z,8.40
2019-02-21T08:32:52.712Z,8.40
2019-02-21T08:34:54.370Z,8.50
2019-02-21T08:36:56.036Z,8.40
2019-02-21T08:38:57.701Z,8.30
2019-02-21T08:40:59.344Z,8.30
2019-02-21T08:43:03.858Z,8.50
2019-02-21T08:45:04.565Z,9.00
2019-02-21T08:47:06.201Z,9.20
2019-02-21T08:49:07.845Z,9.40
2019-02-21T08:51:09.516Z,9.30
2019-02-21T08:53:13.045Z,9.40
2019-02-21T08:55:15.205Z,9.30
2019-02-21T08:57:20.667Z,9.40
2019-02-21T08:59:20.417Z,9.40
2019-02-21T09:01:22.069Z,9.40
2019-02-21T09:03:23.965Z,9.40
2019-02-21T09:05:25.620Z,9.70
2019-02-21T09:07:27.369Z,10.00
2019-02-21T09:09:29.345Z,10.20
2019-02-21T09:11:31.112Z,10.30
2019-02-21T09:13:32.761Z,10.50
2019-02-21T09:15:34.432Z,10.40
2019-02-21T09:17:36.104Z,10.60
2019-02-21T09:19:37.739Z,10.70
2019-02-21T09:21:39.414Z,10.90
2019-02-21T09:23:41.064Z,10.80
2019-02-21T09:25:42.733Z,10.80
2019-02-21T09:27:44.373Z,10.70
2019-02-21T09:29:46.344Z,10.70
2019-02-21T09:31:48.008Z,10.70
2019-02-21T09:33:49.673Z,10.70
2019-02-21T09:35:51.320Z,10.90
2019-02-21T09:37:53.277Z,10.90
2019-02-21T09:39:54.916Z,11.00
2019-02-21T09:41:56.565Z,11.50
2019-02-21T09:43:58.324Z,12.50
2019-02-21T09:46:00.400Z,12.40
2019-02-21T09:48:02.068Z,12.50
2019-02-21T09:50:03.797Z,12.50
2019-02-21T09:52:05.473Z,12.30
2019-02-21T09:54:07.128Z,12.20
2019-02-21T09:56:09.068Z,12.40
2019-02-21T09:58:10.709Z,13.20
2019-02-21T10:00:14.497Z,13.70
2019-02-21T10:02:16.470Z,13.70
2019-02-21T10:04:18.100Z,14.00
2019-02-21T10:06:19.749Z,14.40
2019-02-21T10:08:22.062Z,14.60
2019-02-21T10:10:23.852Z,14.30
2019-02-21T10:12:25.497Z,14.30
2019-02-21T10:14:27.157Z,14.30
2019-02-21T10:16:28.808Z,15.10
2019-02-21T10:18:30.457Z,15.40
2019-02-21T10:20:32.101Z,16.00
2019-02-21T10:22:33.764Z,14.90
2019-02-21T10:24:35.798Z,14.60
2019-02-21T10:26:37.499Z,14.20
2019-02-21T10:28:39.129Z,13.90
2019-02-21T10:30:40.793Z,13.20
2019-02-21T10:32:42.763Z,12.90
2019-02-21T10:34:44.672Z,12.80
2019-02-21T10:36:46.434Z,12.40
2019-02-21T10:38:48.072Z,12.50
2019-02-21T10:40:49.739Z,12.30
2019-02-21T10:42:51.384Z,12.30
2019-02-21T10:44:53.309Z,12.20
2019-02-21T10:46:55.964Z,12.30
2019-02-21T10:48:57.604Z,11.80
2019-02-21T10:50:59.258Z,11.70
2019-02-21T10:53:00.972Z,11.70
2019-02-21T10:55:03.131Z,11.90
2019-02-21T10:57:04.808Z,12.40
2019-02-21T10:59:06.449Z,12.10
2019-02-21T11:01:08.369Z,12.30
2019-02-21T11:03:10.016Z,12.20
2019-02-21T11:05:11.677Z,12.50
2019-02-21T11:07:13.318Z,12.30
2019-02-21T11:09:21.465Z,11.80
2019-02-21T11:11:23.100Z,11.70
2019-02-21T11:13:24.780Z,11.50
2019-02-21T11:15:26.441Z,11.30
2019-02-21T11:17:28.416Z,11.10
2019-02-21T11:19:30.052Z,10.90
2019-02-21T11:21:31.688Z,10.90
2019-02-21T11:23:33.353Z,10.80
2019-02-21T11:25:35.005Z,10.70
2019-02-21T11:27:36.670Z,10.60
2019-02-21T11:29:38.575Z,10.50
2019-02-21T11:31:40.213Z,10.50
2019-02-21T11:33:41.892Z,10.50
2019-02-21T11:35:43.529Z,10.60
2019-02-21T11:37:46.972Z,10.70
2019-02-21T11:39:49.053Z,10.90
2019-02-21T11:41:50.684Z,11.00
2019-02-21T11:43:52.346Z,11.20
2019-02-21T11:45:57.357Z,11.30
2019-02-21T11:47:57.580Z,11.30
2019-02-21T11:49:59.301Z,11.50
2019-02-21T11:52:09.902Z,11.60
2019-02-21T11:54:04.781Z,11.90
2019-02-21T11:56:06.424Z,11.90
2019-02-21T11:58:08.102Z,11.80
2019-02-21T12:00:13.504Z,12.00
2019-02-21T12:02:15.164Z,13.40
2019-02-21T12:04:16.845Z,12.90
2019-02-21T12:06:18.617Z,13.70
2019-02-21T12:08:20.274Z,13.50
2019-02-21T12:10:21.932Z,13.30
2019-02-21T12:12:23.568Z,13.40
2019-02-21T12:14:25.473Z,14.10
2019-02-21T12:16:27.122Z,13.70
2019-02-21T12:18:28.792Z,13.40
2019-02-21T12:20:30.446Z,13.20
2019-02-21T12:22:32.105Z,12.70
2019-02-21T12:24:33.844Z,12.70
2019-02-21T12:26:35.477Z,12.60
2019-02-21T12:28:37.133Z,12.60
2019-02-21T12:30:39.097Z,12.50
2019-02-21T12:32:40.820Z,12.50
2019-02-21T12:34:42.507Z,12.40
2019-02-21T12:36:44.136Z,12.40
2019-02-21T12:38:46.095Z,12.40
2019-02-21T12:40:48.358Z,12.50
2019-02-21T12:42:50.023Z,12.30
2019-02-21T12:44:51.766Z,12.30
2019-02-21T12:46:53.497Z,12.20
2019-02-21T12:48:55.144Z,12.20
2019-02-21T12:50:56.784Z,12.00
2019-02-21T12:52:58.433Z,12.00
2019-02-21T12:55:00.092Z,11.90
2019-02-21T12:57:01.945Z,12.00
2019-02-21T12:59:03.633Z,11.80
2019-02-21T13:01:05.270Z,11.90
2019-02-21T13:03:06.932Z,11.90
2019-02-21T13:05:08.589Z,11.80
2019-02-21T13:07:10.228Z,11.80
2019-02-21T13:09:11.906Z,11.90
2019-02-21T13:11:13.539Z,11.90
2019-02-21T13:13:15.177Z,12.10
2019-02-21T13:15:16.832Z,11.90
2019-02-21T13:17:18.472Z,11.90
2019-02-21T13:19:20.137Z,11.80
2019-02-21T13:21:21.795Z,11.80
2019-02-21T13:23:23.992Z,11.70
2019-02-21T13:25:25.637Z,11.60
2019-02-21T13:27:27.300Z,11.60
2019-02-21T13:29:28.947Z,11.60
2019-02-21T13:31:30.594Z,11.70
2019-02-21T13:33:32.538Z,11.80
2019-02-21T13:35:34.480Z,11.80
2019-02-21T13:37:36.118Z,11.90
2019-02-21T13:39:37.773Z,11.90
2019-02-21T13:41:39.442Z,11.90
2019-02-21T13:43:41.072Z,11.80
2019-02-21T13:45:42.731Z,11.90
2019-02-21T13:47:44.372Z,12.00
2019-02-21T13:49:46.033Z,11.90
2019-02-21T13:51:48.048Z,11.90
2019-02-21T13:53:52.246Z,11.80
2019-02-21T13:55:54.117Z,11.80
2019-02-21T13:57:55.942Z,11.90
2019-02-21T13:59:57.601Z,11.80
2019-02-21T14:01:59.360Z,11.80
2019-02-21T14:04:01.000Z,11.80
2019-02-21T14:06:03.784Z,11.60
2019-02-21T14:08:05.876Z,11.60
2019-02-21T14:10:08.049Z,11.60
2019-02-21T14:12:09.685Z,11.50
2019-02-21T14:14:11.342Z,11.60
2019-02-21T14:16:12.981Z,11.60
2019-02-21T14:18:14.894Z,11.60
2019-02-21T14:20:16.537Z,11.60
2019-02-21T14:22:18.200Z,11.50
2019-02-21T14:24:19.856Z,11.50
2019-02-21T14:26:21.802Z,11.40
2019-02-21T14:28:23.807Z,11.40
2019-02-21T14:30:25.487Z,11.30
2019-02-21T14:32:27.132Z,11.30
2019-02-21T14:34:29.049Z,11.20
2019-02-21T14:36:30.709Z,11.20
2019-02-21T14:38:32.350Z,11.20
2019-02-21T14:40:34.309Z,11.20
2019-02-21T14:42:35.960Z,11.10
2019-02-21T14:44:37.624Z,11.00
2019-02-21T14:46:39.516Z,11.00
2019-02-21T14:48:41.162Z,10.90
2019-02-21T14:50:43.040Z,10.80
2019-02-21T14:52:44.675Z,10.70
2019-02-21T14:54:46.342Z,10.70
2019-02-21T14:56:47.989Z,10.70
2019-02-21T14:58:49.635Z,10.70
2019-02-21T15:00:51.280Z,10.70
2019-02-21T15:02:52.929Z,10.60
2019-02-21T15:04:54.569Z,10.70
2019-02-21T15:06:56.216Z,10.60
2019-02-21T15:08:57.860Z,10.70
2019-02-21T15:10:59.540Z,10.70
2019-02-21T15:13:01.185Z,10.70
2019-02-21T15:15:03.434Z,10.70
2019-02-21T15:17:05.092Z,10.60
2019-02-21T15:19:06.732Z,10.50
2019-02-21T15:21:08.442Z,10.40
2019-02-21T15:23:10.155Z,10.30
2019-02-21T15:25:11.796Z,10.40
2019-02-21T15:27:13.451Z,10.30
2019-02-21T15:29:15.093Z,10.30
2019-02-21T15:31:16.770Z,10.30
2019-02-21T15:33:18.645Z,10.30
2019-02-21T15:35:20.556Z,10.30
2019-02-21T15:37:22.209Z,10.30
2019-02-21T15:39:23.849Z,10.30
2019-02-21T15:41:25.795Z,10.20
2019-02-21T15:43:27.442Z,10.20
2019-02-21T15:45:29.081Z,10.20
2019-02-21T15:47:30.740Z,10.20
2019-02-21T15:49:32.376Z,10.20
2019-02-21T15:51:34.321Z,10.10
2019-02-21T15:53:35.968Z,10.10
2019-02-21T15:55:37.609Z,10.10
2019-02-21T15:57:39.270Z,10.10
2019-02-21T15:59:40.925Z,10.10
2019-02-21T16:01:47.628Z,10.00
2019-02-21T16:03:46.454Z,10.00
2019-02-21T16:05:48.178Z,9.90
2019-02-21T16:07:49.837Z,9.90
2019-02-21T16:09:51.477Z,9.90
2019-02-21T16:11:53.155Z,9.90
2019-02-21T16:14:03.084Z,9.90
2019-02-21T16:15:59.009Z,9.90
2019-02-21T16:18:00.697Z,9.90
2019-02-21T16:20:02.494Z,9.90
2019-02-21T16:22:04.240Z,9.80
2019-02-21T16:24:05.876Z,9.80
2019-02-21T16:26:07.789Z,9.70
2019-02-21T16:28:09.716Z,9.70
2019-02-21T16:30:12.790Z,9.60
2019-02-21T16:32:14.532Z,9.70
2019-02-21T16:34:16.192Z,9.60
2019-02-21T16:36:17.825Z,9.60
2019-02-21T16:38:19.482Z,9.60
2019-02-21T16:40:21.148Z,9.60
2019-02-21T16:42:22.870Z,9.50
2019-02-21T16:44:24.759Z,9.60
2019-02-21T16:46:26.401Z,9.60
2019-02-21T16:48:28.057Z,9.60
2019-02-21T16:50:30.378Z,9.60
2019-02-21T16:52:32.174Z,9.60
2019-02-21T16:54:34.200Z,9.60
2019-02-21T16:56:36.157Z,9.60
2019-02-21T16:58:38.093Z,9.60
2019-02-21T17:00:51.342Z,9.60
2019-02-21T17:02:43.829Z,9.60
2019-02-21T17:04:45.729Z,9.60
2019-02-21T17:06:47.372Z,9.60
2019-02-21T17:08:49.026Z,9.60
2019-02-21T17:10:51.484Z,9.60
2019-02-21T17:12:55.125Z,9.70
2019-02-21T17:14:56.690Z,9.60
2019-02-21T17:16:58.356Z,9.60
2019-02-21T17:19:00.005Z,9.60
2019-02-21T17:21:01.642Z,9.60
2019-02-21T17:23:03.568Z,9.70
2019-02-21T17:25:06.245Z,9.60
2019-02-21T17:27:07.892Z,9.70
2019-02-21T17:29:09.785Z,9.60
2019-02-21T17:31:11.426Z,9.60
2019-02-21T17:33:13.140Z,9.60
2019-02-21T17:35:15.114Z,9.60
2019-02-21T17:37:24.690Z,9.60
2019-02-21T17:39:20.319Z,9.50
2019-02-21T17:41:22.297Z,9.50
2019-02-21T17:43:23.953Z,9.50
2019-02-21T17:45:25.607Z,9.50
2019-02-21T17:47:27.248Z,9.50
2019-02-21T17:49:28.925Z,9.50
2019-02-21T17:51:30.560Z,9.50
2019-02-21T17:53:32.215Z,9.50
2019-02-21T17:55:33.852Z,9.40
2019-02-21T17:57:36.967Z,9.50
2019-02-21T17:59:39.235Z,9.40
2019-02-21T18:01:40.889Z,9.40
2019-02-21T18:03:42.553Z,9.40
2019-02-21T18:05:44.197Z,9.40
2019-02-21T18:07:45.860Z,9.40
2019-02-21T18:09:47.749Z,9.40
2019-02-21T18:11:49.391Z,9.40
2019-02-21T18:13:51.308Z,9.40
2019-02-21T18:15:52.945Z,9.40
2019-02-21T18:17:54.591Z,9.40
2019-02-21T18:19:56.273Z,9.40
2019-02-21T18:21:57.914Z,9.40
2019-02-21T18:23:59.572Z,9.40
2019-02-21T18:26:06.266Z,9.40
2019-02-21T18:28:07.927Z,9.40
2019-02-21T18:30:10.914Z,9.30
2019-02-21T18:32:12.552Z,9.30
2019-02-21T18:34:14.300Z,9.30
2019-02-21T18:36:15.936Z,9.40
2019-02-21T18:38:17.580Z,9.40
2019-02-21T18:40:20.747Z,9.40
2019-02-21T18:42:22.825Z,9.30
2019-02-21T18:44:24.492Z,9.30
2019-02-21T18:46:26.142Z,9.30
2019-02-21T18:48:27.800Z,9.30
2019-02-21T18:50:37.836Z,9.30
2019-02-21T18:52:33.150Z,9.30
2019-02-21T18:54:34.799Z,9.30
2019-02-21T18:56:36.454Z,9.30
2019-02-21T18:58:38.104Z,9.30
2019-02-21T19:00:39.753Z,9.30
2019-02-21T19:02:41.401Z,9.30
2019-02-21T19:04:43.036Z,9.30
2019-02-21T19:06:44.704Z,9.30
2019-02-21T19:08:46.368Z,9.30
2019-02-21T19:10:48.261Z,9.30
2019-02-21T19:12:49.920Z,9.30
2019-02-21T19:14:51.568Z,9.30
2019-02-21T19:16:53.217Z,9.30
2019-02-21T19:18:54.881Z,9.30
2019-02-21T19:20:56.548Z,9.30
2019-02-21T19:22:58.192Z,9.30
2019-02-21T19:25:00.312Z,9.30
2019-02-21T19:27:02.304Z,9.30
2019-02-21T19:29:04.068Z,9.30
2019-02-21T19:31:09.533Z,9.30
2019-02-21T19:33:11.177Z,9.30
2019-02-21T19:35:12.833Z,9.30
2019-02-21T19:37:14.477Z,9.30
2019-02-21T19:39:16.463Z,9.30
2019-02-21T19:41:18.504Z,9.30
2019-02-21T19:43:20.145Z,9.30
2019-02-21T19:45:21.813Z,9.30
2019-02-21T19:47:23.549Z,9.30
2019-02-21T19:49:25.193Z,9.30
2019-02-21T19:51:26.840Z,9.30
2019-02-21T19:53:28.484Z,9.30
2019-02-21T19:55:30.500Z,9.30
2019-02-21T19:57:32.385Z,9.30
2019-02-21T19:59:34.054Z,9.30
2019-02-21T20:01:35.920Z,9.30
2019-02-21T20:03:37.556Z,9.30
2019-02-21T20:05:39.217Z,9.30
2019-02-21T20:07:40.861Z,9.30
2019-02-21T20:09:42.836Z,9.30
2019-02-21T20:11:44.493Z,9.30
2019-02-21T20:13:46.439Z,9.30
2019-02-21T20:15:48.432Z,9.30
2019-02-21T20:17:50.344Z,9.30
2019-02-21T20:19:52.013Z,9.30
2019-02-21T20:21:54.620Z,9.30
2019-02-21T20:23:56.832Z,9.30
2019-02-21T20:25:58.504Z,9.30
2019-02-21T20:28:00.158Z,9.30
2019-02-21T20:30:01.805Z,9.30
2019-02-21T20:32:03.809Z,9.30
2019-02-21T20:34:05.750Z,9.30
2019-02-21T20:36:07.405Z,9.30
2019-02-21T20:38:09.073Z,9.30
2019-02-21T20:40:10.713Z,9.30
2019-02-21T20:42:12.372Z,9.30
2019-02-21T20:44:14.017Z,9.30
2019-02-21T20:46:15.710Z,9.30
2019-02-21T20:48:17.708Z,9.30
2019-02-21T20:50:19.349Z,9.30
2019-02-21T20:52:21.005Z,9.30
2019-02-21T20:54:22.644Z,9.30
2019-02-21T20:56:24.296Z,9.30
2019-02-21T20:58:26.188Z,9.30
2019-02-21T21:00:28.149Z,9.30
2019-02-21T21:02:30.037Z,9.30
2019-02-21T21:04:31.676Z,9.30
2019-02-21T21:06:33.433Z,9.30
2019-02-21T21:08:42.826Z,9.30
2019-02-21T21:10:38.910Z,9.30
2019-02-21T21:12:40.552Z,9.30
2019-02-21T21:14:42.195Z,9.30
2019-02-21T21:16:43.849Z,9.30
2019-02-21T21:18:45.488Z,9.30
2019-02-21T21:20:47.380Z,9.30
2019-02-21T21:22:49.030Z,9.30
2019-02-21T21:24:50.680Z,9.30
2019-02-21T21:26:52.336Z,9.30
2019-02-21T21:28:54.245Z,9.30
2019-02-21T21:30:55.904Z,9.30
2019-02-21T21:32:57.568Z,9.30
2019-02-21T21:34:59.220Z,9.30
2019-02-21T21:37:01.108Z,9.30
2019-02-21T21:39:03.925Z,9.30
2019-02-21T21:41:05.594Z,9.30
2019-02-21T21:43:07.272Z,9.30
2019-02-21T21:45:11.271Z,9.30
2019-02-21T21:47:13.180Z,9.30
2019-02-21T21:49:14.816Z,9.30
2019-02-21T21:51:16.463Z,9.30
2019-02-21T21:53:18.113Z,9.30
2019-02-21T21:55:19.772Z,9.30
2019-02-21T21:57:21.765Z,9.30
2019-02-21T21:59:23.733Z,9.30
2019-02-21T22:01:25.381Z,9.30
2019-02-21T22:03:27.037Z,9.30
2019-02-21T22:05:28.676Z,9.30
2019-02-21T22:07:30.574Z,9.30
2019-02-21T22:09:32.220Z,9.30
2019-02-21T22:11:33.884Z,9.30
2019-02-21T22:13:35.538Z,9.30
2019-02-21T22:15:37.184Z,9.30
2019-02-21T22:17:39.109Z,9.30
2019-02-21T22:19:40.744Z,9.20
2019-02-21T22:21:42.383Z,9.20
2019-02-21T22:23:44.076Z,9.20
2019-02-21T22:25:46.042Z,9.20
2019-02-21T22:27:47.684Z,9.20
2019-02-21T22:29:49.376Z,9.20
2019-02-21T22:31:51.020Z,9.20
2019-02-21T22:33:52.951Z,9.20
2019-02-21T22:35:55.413Z,9.20
2019-02-21T22:37:57.068Z,9.20
2019-02-21T22:39:58.715Z,9.20
2019-02-21T22:42:00.440Z,9.20
2019-02-21T22:44:02.088Z,9.10
2019-02-21T22:46:03.735Z,9.10
2019-02-21T22:48:05.368Z,9.20
2019-02-21T22:50:09.089Z,9.10
2019-02-21T22:52:10.752Z,9.10
2019-02-21T22:54:12.420Z,9.10
2019-02-21T22:56:14.052Z,9.10
2019-02-21T22:58:15.708Z,9.10
2019-02-21T23:00:59.052Z,9.10
2019-02-21T23:03:00.720Z,9.10
2019-02-21T23:05:37.216Z,9.10
2019-02-21T23:07:46.115Z,9.10
2019-02-21T23:09:47.768Z,9.10
2019-02-21T23:11:49.409Z,9.10
2019-02-21T23:13:51.156Z,9.10
2019-02-21T23:15:52.832Z,9.10
2019-02-21T23:17:54.496Z,9.00
2019-02-21T23:19:56.148Z,9.00
2019-02-21T23:21:57.797Z,9.10
2019-02-21T23:23:59.565Z,9.10
2019-02-21T23:26:01.464Z,9.00
2019-02-21T23:28:03.104Z,9.00
2019-02-21T23:30:08.404Z,9.00
2019-02-21T23:32:10.059Z,9.00
2019-02-21T23:34:20.461Z,9.00
2019-02-21T23:36:22.100Z,9.00
2019-02-21T23:38:23.986Z,9.00
2019-02-21T23:40:25.632Z,8.90
2019-02-21T23:42:27.300Z,9.00
2019-02-21T23:44:29.211Z,8.90
2019-02-21T23:46:30.848Z,8.90
2019-02-21T23:48:32.529Z,8.90
2019-02-21T23:50:34.165Z,8.90
2019-02-21T23:52:35.817Z,8.90
2019-02-21T23:54:37.473Z,8.90
2019-02-21T23:56:39.140Z,8.90
2019-02-21T23:58:41.166Z,8.90
